createdAt,value
2023-01-29T00:03:17.961Z,0
2023-01-29T00:08:23.985Z,0
2023-01-29T00:13:30.037Z,0
2023-01-29T00:18:36.182Z,0
2023-01-29T00:23:42.190Z,0
2023-01-29T00:28:47.321Z,0
2023-01-29T00:33:52.381Z,0
2023-01-29T00:38:58.432Z,0
2023-01-29T00:44:04.628Z,0
2023-01-29T00:49:09.649Z,0
2023-01-29T00:54:15.723Z,0
2023-01-29T00:59:20.833Z,0
2023-01-29T01:04:26.963Z,0
2023-01-29T01:09:33.030Z,0
2023-01-29T01:14:39.169Z,0
2023-01-29T01:19:45.247Z,0
2023-01-29T01:24:51.290Z,0
2023-01-29T01:29:57.384Z,0
2023-01-29T01:35:03.465Z,0
2023-01-29T01:40:09.552Z,0
2023-01-29T01:45:15.645Z,0
2023-01-29T01:50:21.735Z,0
2023-01-29T01:55:27.877Z,0
2023-01-29T02:00:33.919Z,0
2023-01-29T02:05:39.024Z,0
2023-01-29T02:10:45.110Z,0
2023-01-29T02:15:51.193Z,0
2023-01-29T02:20:57.290Z,0
2023-01-29T02:26:03.377Z,0
2023-01-29T02:31:09.548Z,0
2023-01-29T02:36:15.607Z,0
2023-01-29T02:41:21.666Z,0
2023-01-29T02:46:27.736Z,0
2023-01-29T02:51:32.882Z,0
2023-01-29T02:56:37.951Z,0
2023-01-29T03:01:44.030Z,0
2023-01-29T03:06:50.197Z,0
2023-01-29T03:11:56.268Z,0
2023-01-29T03:17:02.324Z,0
2023-01-29T03:22:08.492Z,0
2023-01-29T03:27:14.502Z,0
2023-01-29T03:32:20.631Z,0
2023-01-29T03:37:25.712Z,0
2023-01-29T03:42:30.822Z,0
2023-01-29T03:47:36.923Z,0
2023-01-29T03:52:42.997Z,0
2023-01-29T03:57:49.181Z,0
2023-01-29T04:02:55.192Z,0
2023-01-29T04:08:01.271Z,0
2023-01-29T04:13:07.364Z,0
2023-01-29T04:18:13.465Z,0
2023-01-29T04:23:19.565Z,0
2023-01-29T04:28:25.666Z,0
2023-01-29T04:33:31.810Z,0
2023-01-29T04:38:37.812Z,0
2023-01-29T04:43:43.899Z,0
2023-01-29T04:48:50.024Z,0
2023-01-29T04:53:56.096Z,0
2023-01-29T04:59:02.259Z,0
2023-01-29T05:04:08.458Z,0
2023-01-29T05:09:13.427Z,0
2023-01-29T05:14:19.495Z,0
2023-01-29T05:24:31.697Z,0
2023-01-29T05:29:36.771Z,0
2023-01-29T05:34:42.876Z,0
2023-01-29T05:39:48.969Z,0
2023-01-29T05:44:55.080Z,0
2023-01-29T05:50:01.135Z,0
2023-01-29T05:55:06.239Z,0
2023-01-29T06:00:12.343Z,0
2023-01-29T06:05:18.488Z,0
2023-01-29T06:10:24.543Z,0
2023-01-29T06:15:30.654Z,0
2023-01-29T06:20:36.698Z,0
2023-01-29T06:25:42.796Z,0
2023-01-29T06:30:48.864Z,0
2023-01-29T06:35:54.963Z,0
2023-01-29T06:41:01.056Z,0
2023-01-29T06:46:07.145Z,0
2023-01-29T06:51:13.219Z,0
2023-01-29T06:56:19.390Z,4
2023-01-29T07:01:24.508Z,4
2023-01-29T07:06:30.553Z,4
2023-01-29T07:11:36.595Z,4
2023-01-29T07:16:41.712Z,8
2023-01-29T07:21:46.840Z,8
2023-01-29T07:26:51.944Z,8
2023-01-29T07:31:58.042Z,12
2023-01-29T07:37:03.127Z,16
2023-01-29T07:42:09.267Z,16
2023-01-29T07:47:14.354Z,12
2023-01-29T07:52:19.442Z,16
2023-01-29T07:57:25.664Z,20
2023-01-29T08:02:31.726Z,20
2023-01-29T08:07:37.713Z,16
2023-01-29T08:12:43.919Z,24
2023-01-29T08:17:50.058Z,20
2023-01-29T08:22:56.163Z,28
2023-01-29T08:28:02.276Z,28
2023-01-29T08:33:08.377Z,28
2023-01-29T08:38:14.413Z,28
2023-01-29T08:43:20.516Z,36
2023-01-29T08:48:26.636Z,32
2023-01-29T08:53:32.720Z,28
2023-01-29T08:58:37.867Z,36
2023-01-29T09:03:43.839Z,40
2023-01-29T09:08:49.822Z,48
2023-01-29T09:13:56.091Z,56
2023-01-29T09:19:02.081Z,52
2023-01-29T09:24:08.240Z,60
2023-01-29T09:29:14.290Z,72
2023-01-29T09:34:19.469Z,68
2023-01-29T09:39:24.548Z,68
2023-01-29T09:44:29.630Z,76
2023-01-29T09:49:34.823Z,76
2023-01-29T09:54:40.724Z,96
2023-01-29T09:59:46.953Z,116
2023-01-29T10:04:52.981Z,144
2023-01-29T10:09:58.998Z,140
2023-01-29T10:15:05.250Z,108
2023-01-29T10:20:11.332Z,104
2023-01-29T10:25:17.345Z,112
2023-01-29T10:30:23.360Z,152
2023-01-29T10:35:29.532Z,128
2023-01-29T10:40:35.532Z,192
2023-01-29T10:45:41.780Z,168
2023-01-29T10:50:47.763Z,200
2023-01-29T10:55:53.792Z,204
2023-01-29T11:00:59.903Z,192
2023-01-29T11:06:05.136Z,176
2023-01-29T11:11:11.235Z,168
2023-01-29T11:16:17.340Z,164
2023-01-29T11:21:23.405Z,164
2023-01-29T11:26:29.485Z,156
2023-01-29T11:31:35.623Z,140
2023-01-29T11:36:40.751Z,124
2023-01-29T11:41:45.869Z,124
2023-01-29T11:46:51.963Z,124
2023-01-29T11:51:57.006Z,120
2023-01-29T11:57:02.987Z,128
2023-01-29T12:02:08.270Z,136
2023-01-29T12:07:14.171Z,140
2023-01-29T12:12:20.405Z,136
2023-01-29T12:17:26.563Z,136
2023-01-29T12:22:32.668Z,136
2023-01-29T12:27:38.685Z,128
2023-01-29T12:32:44.701Z,104
2023-01-29T12:37:50.794Z,96
2023-01-29T12:42:56.812Z,104
2023-01-29T12:48:02.962Z,80
2023-01-29T12:53:08.996Z,64
2023-01-29T12:58:15.155Z,60
2023-01-29T13:03:21.176Z,60
2023-01-29T13:08:26.376Z,68
2023-01-29T13:13:32.417Z,72
2023-01-29T13:18:38.476Z,64
2023-01-29T13:28:50.643Z,56
2023-01-29T13:33:56.930Z,52
2023-01-29T13:39:03.009Z,36
2023-01-29T13:44:09.071Z,32
2023-01-29T13:49:14.015Z,32
2023-01-29T13:54:20.305Z,32
2023-01-29T13:59:25.347Z,32
2023-01-29T14:04:31.520Z,36
2023-01-29T14:09:37.440Z,36
2023-01-29T14:14:43.542Z,44
2023-01-29T14:24:55.958Z,44
2023-01-29T14:30:01.907Z,32
2023-01-29T14:35:07.963Z,24
2023-01-29T14:40:13.087Z,28
2023-01-29T14:45:19.137Z,32
2023-01-29T14:50:25.352Z,24
2023-01-29T14:55:31.353Z,20
2023-01-29T15:00:37.433Z,16
2023-01-29T15:05:43.546Z,20
2023-01-29T15:15:55.769Z,8
2023-01-29T15:21:01.784Z,8
2023-01-29T15:26:06.771Z,4
2023-01-29T15:31:12.056Z,4
2023-01-29T15:36:18.180Z,4
2023-01-29T15:41:24.249Z,0
2023-01-29T15:46:30.335Z,0
2023-01-29T15:51:36.328Z,0
2023-01-29T15:56:42.502Z,0
2023-01-29T16:01:48.432Z,0
2023-01-29T16:06:54.587Z,0
2023-01-29T16:12:00.833Z,0
2023-01-29T16:17:06.859Z,0
2023-01-29T16:22:12.971Z,0
2023-01-29T16:27:18.881Z,0
2023-01-29T16:32:25.159Z,0
2023-01-29T16:37:30.289Z,0
2023-01-29T16:42:35.341Z,0
2023-01-29T16:47:41.443Z,0
2023-01-29T16:52:47.377Z,0
2023-01-29T16:57:53.541Z,0
2023-01-29T17:02:59.555Z,0
2023-01-29T17:08:05.721Z,0
2023-01-29T17:13:11.805Z,0
2023-01-29T17:18:17.962Z,0
2023-01-29T17:23:24.085Z,0
2023-01-29T17:28:30.200Z,0
2023-01-29T17:33:36.123Z,0
2023-01-29T17:38:42.197Z,0
2023-01-29T17:43:48.291Z,0
2023-01-29T17:48:53.486Z,0
2023-01-29T17:53:59.488Z,0
2023-01-29T17:59:05.601Z,0
2023-01-29T18:04:11.724Z,0
2023-01-29T18:09:17.900Z,0
2023-01-29T18:14:23.918Z,0
2023-01-29T18:19:30.096Z,0
2023-01-29T18:24:35.233Z,0
2023-01-29T18:29:41.321Z,0
2023-01-29T18:34:47.433Z,0
2023-01-29T18:39:52.323Z,0
2023-01-29T18:44:58.607Z,0
2023-01-29T18:50:04.553Z,0
2023-01-29T18:55:09.808Z,0
2023-01-29T19:00:14.928Z,0
2023-01-29T19:05:20.965Z,0
2023-01-29T19:10:26.930Z,0
2023-01-29T19:15:33.182Z,0
2023-01-29T19:20:39.133Z,0
2023-01-29T19:25:45.181Z,0
2023-01-29T19:30:51.340Z,0
2023-01-29T19:35:57.552Z,0
2023-01-29T19:41:03.517Z,0
2023-01-29T19:46:09.624Z,0
2023-01-29T19:51:15.644Z,0
2023-01-29T19:56:21.781Z,0
2023-01-29T20:01:27.944Z,0
2023-01-29T20:06:32.915Z,0
2023-01-29T20:11:39.021Z,0
2023-01-29T20:16:45.095Z,0
2023-01-29T20:21:51.339Z,0
2023-01-29T20:26:57.416Z,0
2023-01-29T20:32:03.460Z,0
2023-01-29T20:37:09.486Z,0
2023-01-29T20:42:14.767Z,0
2023-01-29T20:47:20.670Z,0
2023-01-29T20:52:25.864Z,0
2023-01-29T20:57:31.933Z,0
2023-01-29T21:02:38.125Z,0
2023-01-29T21:07:44.045Z,0
2023-01-29T21:12:50.214Z,0
2023-01-29T21:17:56.222Z,0
2023-01-29T21:23:02.371Z,0
2023-01-29T21:28:08.394Z,0
2023-01-29T21:33:14.545Z,0
2023-01-29T21:38:20.572Z,0
2023-01-29T21:43:26.661Z,0
2023-01-29T21:48:32.749Z,0
2023-01-29T21:53:38.954Z,0
2023-01-29T21:58:45.013Z,0
2023-01-29T22:03:51.028Z,0
2023-01-29T22:08:57.191Z,0
2023-01-29T22:14:02.280Z,0
2023-01-29T22:19:08.448Z,0
2023-01-29T22:24:14.454Z,0
2023-01-29T22:29:20.585Z,0
2023-01-29T22:34:26.577Z,0
2023-01-29T22:39:31.682Z,0
2023-01-29T22:44:36.828Z,0
2023-01-29T22:49:42.890Z,0
2023-01-29T22:54:47.997Z,0
2023-01-29T22:59:54.118Z,0
2023-01-29T23:04:59.208Z,0
2023-01-29T23:15:11.447Z,0
2023-01-29T23:20:17.473Z,0
2023-01-29T23:25:23.557Z,0
2023-01-29T23:30:28.673Z,0
2023-01-29T23:35:34.806Z,0
2023-01-29T23:40:40.858Z,0
2023-01-29T23:45:45.963Z,0
2023-01-29T23:50:52.085Z,0
2023-01-29T23:55:58.154Z,0
